sensor_id;sensor_type;location;lat;lon;timestamp;temperature;humidity
52187;DHT22;38161;53.020;6.598;2023-07-13T00:00:47;16.50;99.90
52187;DHT22;38161;53.020;6.598;2023-07-13T00:03:12;16.50;99.90
52187;DHT22;38161;53.020;6.598;2023-07-13T00:05:39;16.50;99.90
52187;DHT22;38161;53.020;6.598;2023-07-13T00:08:07;16.50;99.90
52187;DHT22;38161;53.020;6.598;2023-07-13T00:10:34;16.50;99.90
52187;DHT22;38161;53.020;6.598;2023-07-13T00:13:04;16.50;99.90
52187;DHT22;38161;53.020;6.598;2023-07-13T00:15:30;16.50;99.90
52187;DHT22;38161;53.020;6.598;2023-07-13T00:17:57;16.40;99.90
52187;DHT22;38161;53.020;6.598;2023-07-13T00:20:26;16.50;99.90
52187;DHT22;38161;53.020;6.598;2023-07-13T00:22:53;16.40;99.90
52187;DHT22;38161;53.020;6.598;2023-07-13T00:25:20;16.50;99.90
52187;DHT22;38161;53.020;6.598;2023-07-13T00:27:47;16.40;99.90
52187;DHT22;38161;53.020;6.598;2023-07-13T00:30:17;16.40;99.90
52187;DHT22;38161;53.020;6.598;2023-07-13T00:32:43;16.40;99.90
52187;DHT22;38161;53.020;6.598;2023-07-13T00:35:09;16.40;99.90
52187;DHT22;38161;53.020;6.598;2023-07-13T00:37:35;16.40;99.90
52187;DHT22;38161;53.020;6.598;2023-07-13T00:40:06;16.50;99.90
52187;DHT22;38161;53.020;6.598;2023-07-13T00:42:32;16.50;99.90
52187;DHT22;38161;53.020;6.598;2023-07-13T00:45:07;16.50;99.90
52187;DHT22;38161;53.020;6.598;2023-07-13T00:47:51;16.50;99.90
52187;DHT22;38161;53.020;6.598;2023-07-13T00:50:18;16.50;99.90
52187;DHT22;38161;53.020;6.598;2023-07-13T00:52:48;16.50;99.90
52187;DHT22;38161;53.020;6.598;2023-07-13T00:55:14;16.50;99.90
52187;DHT22;38161;53.020;6.598;2023-07-13T00:57:41;16.50;99.90
52187;DHT22;38161;53.020;6.598;2023-07-13T01:00:08;16.50;99.90
52187;DHT22;38161;53.020;6.598;2023-07-13T01:02:36;16.50;99.90
52187;DHT22;38161;53.020;6.598;2023-07-13T01:05:19;16.60;99.90
52187;DHT22;38161;53.020;6.598;2023-07-13T01:07:48;16.50;99.90
52187;DHT22;38161;53.020;6.598;2023-07-13T01:10:15;16.50;99.90
52187;DHT22;38161;53.020;6.598;2023-07-13T01:12:41;16.50;99.90
52187;DHT22;38161;53.020;6.598;2023-07-13T01:15:40;16.50;99.90
52187;DHT22;38161;53.020;6.598;2023-07-13T01:18:10;16.50;99.90
52187;DHT22;38161;53.020;6.598;2023-07-13T01:20:39;16.50;99.90
52187;DHT22;38161;53.020;6.598;2023-07-13T01:23:11;16.50;99.90
52187;DHT22;38161;53.020;6.598;2023-07-13T01:25:38;16.50;99.90
52187;DHT22;38161;53.020;6.598;2023-07-13T01:28:07;16.50;99.90
52187;DHT22;38161;53.020;6.598;2023-07-13T01:30:35;16.50;99.90
52187;DHT22;38161;53.020;6.598;2023-07-13T01:33:01;16.50;99.90
52187;DHT22;38161;53.020;6.598;2023-07-13T01:35:27;16.50;99.90
52187;DHT22;38161;53.020;6.598;2023-07-13T01:37:53;16.50;99.90
52187;DHT22;38161;53.020;6.598;2023-07-13T01:40:20;16.50;99.90
52187;DHT22;38161;53.020;6.598;2023-07-13T01:42:46;16.50;99.90
52187;DHT22;38161;53.020;6.598;2023-07-13T01:45:12;16.50;99.90
52187;DHT22;38161;53.020;6.598;2023-07-13T01:47:38;16.50;99.90
52187;DHT22;38161;53.020;6.598;2023-07-13T01:50:07;16.50;99.90
52187;DHT22;38161;53.020;6.598;2023-07-13T01:52:33;16.50;99.90
52187;DHT22;38161;53.020;6.598;2023-07-13T01:54:59;16.50;99.90
52187;DHT22;38161;53.020;6.598;2023-07-13T01:57:25;16.40;99.90
52187;DHT22;38161;53.020;6.598;2023-07-13T01:59:51;16.50;99.90
52187;DHT22;38161;53.020;6.598;2023-07-13T02:02:17;16.50;99.90
52187;DHT22;38161;53.020;6.598;2023-07-13T02:04:42;16.40;99.90
52187;DHT22;38161;53.020;6.598;2023-07-13T02:07:09;16.40;99.90
52187;DHT22;38161;53.020;6.598;2023-07-13T02:09:34;16.40;99.90
52187;DHT22;38161;53.020;6.598;2023-07-13T02:12:01;16.40;99.90
52187;DHT22;38161;53.020;6.598;2023-07-13T02:14:26;16.40;99.90
52187;DHT22;38161;53.020;6.598;2023-07-13T02:16:52;16.40;99.90
52187;DHT22;38161;53.020;6.598;2023-07-13T02:19:18;16.40;99.90
52187;DHT22;38161;53.020;6.598;2023-07-13T02:21:44;16.40;99.90
52187;DHT22;38161;53.020;6.598;2023-07-13T02:24:10;16.30;99.90
52187;DHT22;38161;53.020;6.598;2023-07-13T02:26:40;16.30;99.90
52187;DHT22;38161;53.020;6.598;2023-07-13T02:29:06;16.30;99.90
52187;DHT22;38161;53.020;6.598;2023-07-13T02:31:32;16.30;99.90
52187;DHT22;38161;53.020;6.598;2023-07-13T02:33:58;16.30;99.90
52187;DHT22;38161;53.020;6.598;2023-07-13T02:36:24;16.30;99.90
52187;DHT22;38161;53.020;6.598;2023-07-13T02:38:50;16.30;99.90
52187;DHT22;38161;53.020;6.598;2023-07-13T02:41:16;16.30;99.90
52187;DHT22;38161;53.020;6.598;2023-07-13T02:43:42;16.30;99.90
52187;DHT22;38161;53.020;6.598;2023-07-13T02:46:07;16.20;99.90
52187;DHT22;38161;53.020;6.598;2023-07-13T02:48:34;16.20;99.90
52187;DHT22;38161;53.020;6.598;2023-07-13T02:51:00;16.20;99.90
52187;DHT22;38161;53.020;6.598;2023-07-13T02:53:26;16.20;99.90
52187;DHT22;38161;53.020;6.598;2023-07-13T02:55:53;16.20;99.90
52187;DHT22;38161;53.020;6.598;2023-07-13T02:58:18;16.20;99.90
52187;DHT22;38161;53.020;6.598;2023-07-13T03:00:46;16.10;99.90
52187;DHT22;38161;53.020;6.598;2023-07-13T03:03:12;16.10;99.90
52187;DHT22;38161;53.020;6.598;2023-07-13T03:05:41;16.10;99.90
52187;DHT22;38161;53.020;6.598;2023-07-13T03:08:09;16.00;99.90
52187;DHT22;38161;53.020;6.598;2023-07-13T03:10:35;16.00;99.90
52187;DHT22;38161;53.020;6.598;2023-07-13T03:13:02;16.10;99.90
52187;DHT22;38161;53.020;6.598;2023-07-13T03:15:28;16.00;99.90
52187;DHT22;38161;53.020;6.598;2023-07-13T03:17:53;16.00;99.90
52187;DHT22;38161;53.020;6.598;2023-07-13T03:20:22;16.00;99.90
52187;DHT22;38161;53.020;6.598;2023-07-13T03:22:51;16.00;99.90
52187;DHT22;38161;53.020;6.598;2023-07-13T03:25:17;16.00;99.90
52187;DHT22;38161;53.020;6.598;2023-07-13T03:27:43;16.00;99.90
52187;DHT22;38161;53.020;6.598;2023-07-13T03:30:09;15.90;99.90
52187;DHT22;38161;53.020;6.598;2023-07-13T03:32:35;15.90;99.90
52187;DHT22;38161;53.020;6.598;2023-07-13T03:35:01;15.80;99.90
52187;DHT22;38161;53.020;6.598;2023-07-13T03:37:27;15.80;99.90
52187;DHT22;38161;53.020;6.598;2023-07-13T03:39:53;15.90;99.90
52187;DHT22;38161;53.020;6.598;2023-07-13T03:42:19;15.80;99.90
52187;DHT22;38161;53.020;6.598;2023-07-13T03:44:45;15.90;99.90
52187;DHT22;38161;53.020;6.598;2023-07-13T03:47:11;15.80;99.90
52187;DHT22;38161;53.020;6.598;2023-07-13T03:49:37;15.90;99.90
52187;DHT22;38161;53.020;6.598;2023-07-13T03:52:03;15.90;99.90
52187;DHT22;38161;53.020;6.598;2023-07-13T03:54:29;15.90;99.90
52187;DHT22;38161;53.020;6.598;2023-07-13T03:56:55;15.90;99.90
52187;DHT22;38161;53.020;6.598;2023-07-13T03:59:21;15.90;99.90
52187;DHT22;38161;53.020;6.598;2023-07-13T04:01:47;15.80;99.90
52187;DHT22;38161;53.020;6.598;2023-07-13T04:04:13;15.90;99.90
52187;DHT22;38161;53.020;6.598;2023-07-13T04:06:41;15.90;99.90
52187;DHT22;38161;53.020;6.598;2023-07-13T04:09:07;15.90;99.90
52187;DHT22;38161;53.020;6.598;2023-07-13T04:11:34;15.90;99.90
52187;DHT22;38161;53.020;6.598;2023-07-13T04:14:02;15.90;99.90
52187;DHT22;38161;53.020;6.598;2023-07-13T04:16:28;15.90;99.90
52187;DHT22;38161;53.020;6.598;2023-07-13T04:18:55;15.90;99.90
52187;DHT22;38161;53.020;6.598;2023-07-13T04:21:29;15.90;99.90
52187;DHT22;38161;53.020;6.598;2023-07-13T04:23:55;15.90;99.90
52187;DHT22;38161;53.020;6.598;2023-07-13T04:26:21;15.90;99.90
52187;DHT22;38161;53.020;6.598;2023-07-13T04:28:48;15.90;99.90
52187;DHT22;38161;53.020;6.598;2023-07-13T04:31:14;15.90;99.90
52187;DHT22;38161;53.020;6.598;2023-07-13T04:33:40;15.90;99.90
52187;DHT22;38161;53.020;6.598;2023-07-13T04:36:06;15.90;99.90
52187;DHT22;38161;53.020;6.598;2023-07-13T04:38:35;15.90;99.90
52187;DHT22;38161;53.020;6.598;2023-07-13T04:41:04;15.80;99.90
52187;DHT22;38161;53.020;6.598;2023-07-13T04:43:31;15.80;99.90
52187;DHT22;38161;53.020;6.598;2023-07-13T04:45:57;15.80;99.90
52187;DHT22;38161;53.020;6.598;2023-07-13T04:48:28;15.80;99.90
52187;DHT22;38161;53.020;6.598;2023-07-13T04:50:56;15.80;99.90
52187;DHT22;38161;53.020;6.598;2023-07-13T04:53:22;15.90;99.90
52187;DHT22;38161;53.020;6.598;2023-07-13T04:55:48;15.80;99.90
52187;DHT22;38161;53.020;6.598;2023-07-13T04:58:14;15.90;99.90
52187;DHT22;38161;53.020;6.598;2023-07-13T05:00:40;15.90;99.90
52187;DHT22;38161;53.020;6.598;2023-07-13T05:03:06;15.90;99.90
52187;DHT22;38161;53.020;6.598;2023-07-13T05:05:32;15.90;99.90
52187;DHT22;38161;53.020;6.598;2023-07-13T05:07:58;15.90;99.90
52187;DHT22;38161;53.020;6.598;2023-07-13T05:10:24;16.00;99.90
52187;DHT22;38161;53.020;6.598;2023-07-13T05:12:50;15.90;99.90
52187;DHT22;38161;53.020;6.598;2023-07-13T05:15:17;16.00;99.90
52187;DHT22;38161;53.020;6.598;2023-07-13T05:17:49;16.00;99.90
52187;DHT22;38161;53.020;6.598;2023-07-13T05:20:16;16.00;99.90
52187;DHT22;38161;53.020;6.598;2023-07-13T05:22:44;16.10;99.90
52187;DHT22;38161;53.020;6.598;2023-07-13T05:25:12;16.10;99.90
52187;DHT22;38161;53.020;6.598;2023-07-13T05:27:39;16.30;99.90
52187;DHT22;38161;53.020;6.598;2023-07-13T05:30:05;16.30;99.90
52187;DHT22;38161;53.020;6.598;2023-07-13T05:32:31;16.30;99.90
52187;DHT22;38161;53.020;6.598;2023-07-13T05:34:57;16.30;99.90
52187;DHT22;38161;53.020;6.598;2023-07-13T05:37:23;16.40;99.90
52187;DHT22;38161;53.020;6.598;2023-07-13T05:39:49;16.40;99.90
52187;DHT22;38161;53.020;6.598;2023-07-13T05:42:15;16.50;99.90
52187;DHT22;38161;53.020;6.598;2023-07-13T05:44:43;16.50;99.90
52187;DHT22;38161;53.020;6.598;2023-07-13T05:47:09;16.60;99.90
52187;DHT22;38161;53.020;6.598;2023-07-13T05:49:35;16.60;99.90
52187;DHT22;38161;53.020;6.598;2023-07-13T05:52:01;16.70;99.90
52187;DHT22;38161;53.020;6.598;2023-07-13T05:54:27;16.80;99.90
52187;DHT22;38161;53.020;6.598;2023-07-13T05:56:53;16.80;99.90
52187;DHT22;38161;53.020;6.598;2023-07-13T05:59:19;16.90;99.90
52187;DHT22;38161;53.020;6.598;2023-07-13T06:01:45;16.90;99.90
52187;DHT22;38161;53.020;6.598;2023-07-13T06:04:11;17.00;99.90
52187;DHT22;38161;53.020;6.598;2023-07-13T06:06:37;17.00;99.90
52187;DHT22;38161;53.020;6.598;2023-07-13T06:09:03;17.40;99.90
52187;DHT22;38161;53.020;6.598;2023-07-13T06:11:29;17.20;99.90
52187;DHT22;38161;53.020;6.598;2023-07-13T06:13:56;17.30;99.90
52187;DHT22;38161;53.020;6.598;2023-07-13T06:16:22;17.40;99.90
52187;DHT22;38161;53.020;6.598;2023-07-13T06:18:48;17.50;99.90
52187;DHT22;38161;53.020;6.598;2023-07-13T06:21:16;17.50;99.90
52187;DHT22;38161;53.020;6.598;2023-07-13T06:23:44;17.60;99.90
52187;DHT22;38161;53.020;6.598;2023-07-13T06:26:11;17.70;99.90
52187;DHT22;38161;53.020;6.598;2023-07-13T06:28:37;17.80;99.90
52187;DHT22;38161;53.020;6.598;2023-07-13T06:31:06;17.80;99.90
52187;DHT22;38161;53.020;6.598;2023-07-13T06:33:32;17.90;99.90
52187;DHT22;38161;53.020;6.598;2023-07-13T06:35:58;18.00;99.90
52187;DHT22;38161;53.020;6.598;2023-07-13T06:38:24;18.00;99.90
52187;DHT22;38161;53.020;6.598;2023-07-13T06:40:50;18.10;99.90
52187;DHT22;38161;53.020;6.598;2023-07-13T06:43:16;18.20;99.90
52187;DHT22;38161;53.020;6.598;2023-07-13T06:45:45;18.30;99.90
52187;DHT22;38161;53.020;6.598;2023-07-13T06:48:13;18.30;99.90
52187;DHT22;38161;53.020;6.598;2023-07-13T06:50:40;18.40;99.90
52187;DHT22;38161;53.020;6.598;2023-07-13T06:53:07;18.50;99.90
52187;DHT22;38161;53.020;6.598;2023-07-13T06:55:33;18.60;99.90
52187;DHT22;38161;53.020;6.598;2023-07-13T06:57:59;18.70;99.90
52187;DHT22;38161;53.020;6.598;2023-07-13T07:00:25;18.80;99.90
52187;DHT22;38161;53.020;6.598;2023-07-13T07:02:51;18.90;99.90
52187;DHT22;38161;53.020;6.598;2023-07-13T07:05:17;19.00;99.90
52187;DHT22;38161;53.020;6.598;2023-07-13T07:07:43;19.10;99.90
52187;DHT22;38161;53.020;6.598;2023-07-13T07:10:09;19.10;99.90
52187;DHT22;38161;53.020;6.598;2023-07-13T07:12:34;19.20;99.90
52187;DHT22;38161;53.020;6.598;2023-07-13T07:15:01;19.30;99.90
52187;DHT22;38161;53.020;6.598;2023-07-13T07:17:27;19.40;99.90
52187;DHT22;38161;53.020;6.598;2023-07-13T07:19:53;19.50;99.90
52187;DHT22;38161;53.020;6.598;2023-07-13T07:22:20;19.50;99.90
52187;DHT22;38161;53.020;6.598;2023-07-13T07:24:47;19.50;99.90
52187;DHT22;38161;53.020;6.598;2023-07-13T07:27:12;19.40;99.90
52187;DHT22;38161;53.020;6.598;2023-07-13T07:29:38;19.50;99.90
52187;DHT22;38161;53.020;6.598;2023-07-13T07:32:04;19.50;99.90
52187;DHT22;38161;53.020;6.598;2023-07-13T07:34:31;19.50;99.90
52187;DHT22;38161;53.020;6.598;2023-07-13T07:37:00;19.50;99.90
52187;DHT22;38161;53.020;6.598;2023-07-13T07:39:27;19.50;99.90
52187;DHT22;38161;53.020;6.598;2023-07-13T07:41:53;19.40;99.90
52187;DHT22;38161;53.020;6.598;2023-07-13T07:44:18;19.40;99.90
52187;DHT22;38161;53.020;6.598;2023-07-13T07:46:44;19.30;99.90
52187;DHT22;38161;53.020;6.598;2023-07-13T07:49:10;19.20;99.90
52187;DHT22;38161;53.020;6.598;2023-07-13T07:51:36;19.20;99.90
52187;DHT22;38161;53.020;6.598;2023-07-13T07:54:04;19.10;99.90
52187;DHT22;38161;53.020;6.598;2023-07-13T07:56:30;19.10;99.90
52187;DHT22;38161;53.020;6.598;2023-07-13T07:58:55;19.00;99.90
52187;DHT22;38161;53.020;6.598;2023-07-13T08:01:22;18.90;99.90
52187;DHT22;38161;53.020;6.598;2023-07-13T08:03:48;18.80;99.90
52187;DHT22;38161;53.020;6.598;2023-07-13T08:06:15;18.80;99.90
52187;DHT22;38161;53.020;6.598;2023-07-13T08:08:42;18.70;99.90
52187;DHT22;38161;53.020;6.598;2023-07-13T08:11:08;18.60;99.90
52187;DHT22;38161;53.020;6.598;2023-07-13T08:13:35;18.60;99.90
52187;DHT22;38161;53.020;6.598;2023-07-13T08:16:03;18.60;99.90
52187;DHT22;38161;53.020;6.598;2023-07-13T08:18:29;18.60;99.90
52187;DHT22;38161;53.020;6.598;2023-07-13T08:20:55;18.70;99.90
52187;DHT22;38161;53.020;6.598;2023-07-13T08:23:25;18.70;99.90
52187;DHT22;38161;53.020;6.598;2023-07-13T08:25:54;18.70;99.90
52187;DHT22;38161;53.020;6.598;2023-07-13T08:28:21;18.60;99.90
52187;DHT22;38161;53.020;6.598;2023-07-13T08:30:47;18.60;99.90
52187;DHT22;38161;53.020;6.598;2023-07-13T08:33:23;18.50;99.90
52187;DHT22;38161;53.020;6.598;2023-07-13T08:35:52;18.50;99.90
52187;DHT22;38161;53.020;6.598;2023-07-13T08:38:18;18.50;99.90
52187;DHT22;38161;53.020;6.598;2023-07-13T08:40:48;18.50;99.90
52187;DHT22;38161;53.020;6.598;2023-07-13T08:43:20;18.40;99.90
52187;DHT22;38161;53.020;6.598;2023-07-13T08:46:17;18.30;99.90
52187;DHT22;38161;53.020;6.598;2023-07-13T08:48:52;18.10;99.90
52187;DHT22;38161;53.020;6.598;2023-07-13T08:51:31;18.00;99.90
52187;DHT22;38161;53.020;6.598;2023-07-13T08:54:08;17.80;99.90
52187;DHT22;38161;53.020;6.598;2023-07-13T08:56:35;17.70;99.90
52187;DHT22;38161;53.020;6.598;2023-07-13T08:59:16;17.50;99.90
52187;DHT22;38161;53.020;6.598;2023-07-13T09:04:34;17.40;99.90
52187;DHT22;38161;53.020;6.598;2023-07-13T09:12:45;17.30;99.90
52187;DHT22;38161;53.020;6.598;2023-07-13T09:15:51;17.30;99.90
52187;DHT22;38161;53.020;6.598;2023-07-13T09:18:32;17.40;99.90
52187;DHT22;38161;53.020;6.598;2023-07-13T09:21:33;17.40;99.90
52187;DHT22;38161;53.020;6.598;2023-07-13T09:26:42;17.50;99.90
52187;DHT22;38161;53.020;6.598;2023-07-13T09:29:17;17.50;99.90
52187;DHT22;38161;53.020;6.598;2023-07-13T09:31:47;17.50;99.90
52187;DHT22;38161;53.020;6.598;2023-07-13T09:34:17;17.60;99.90
52187;DHT22;38161;53.020;6.598;2023-07-13T09:36:46;17.60;99.90
52187;DHT22;38161;53.020;6.598;2023-07-13T09:39:29;17.60;99.90
52187;DHT22;38161;53.020;6.598;2023-07-13T09:42:18;17.60;99.90
52187;DHT22;38161;53.020;6.598;2023-07-13T09:47:18;17.60;99.90
52187;DHT22;38161;53.020;6.598;2023-07-13T09:49:45;17.60;99.90
52187;DHT22;38161;53.020;6.598;2023-07-13T09:52:15;17.70;99.90
52187;DHT22;38161;53.020;6.598;2023-07-13T09:54:45;17.90;99.90
52187;DHT22;38161;53.020;6.598;2023-07-13T09:57:20;18.00;99.90
52187;DHT22;38161;53.020;6.598;2023-07-13T09:59:50;18.10;99.90
52187;DHT22;38161;53.020;6.598;2023-07-13T10:04:57;18.10;99.90
52187;DHT22;38161;53.020;6.598;2023-07-13T10:07:24;18.20;99.90
52187;DHT22;38161;53.020;6.598;2023-07-13T10:09:54;18.30;99.90
52187;DHT22;38161;53.020;6.598;2023-07-13T10:12:21;18.40;99.90
52187;DHT22;38161;53.020;6.598;2023-07-13T10:14:54;18.40;99.90
52187;DHT22;38161;53.020;6.598;2023-07-13T10:17:29;18.40;99.90
52187;DHT22;38161;53.020;6.598;2023-07-13T10:20:05;18.30;99.90
52187;DHT22;38161;53.020;6.598;2023-07-13T10:22:59;18.20;99.90
52187;DHT22;38161;53.020;6.598;2023-07-13T10:25:39;18.20;99.90
52187;DHT22;38161;53.020;6.598;2023-07-13T10:28:35;18.10;99.90
52187;DHT22;38161;53.020;6.598;2023-07-13T10:31:08;17.90;99.90
52187;DHT22;38161;53.020;6.598;2023-07-13T10:33:37;17.80;99.90
52187;DHT22;38161;53.020;6.598;2023-07-13T10:39:04;17.60;99.90
52187;DHT22;38161;53.020;6.598;2023-07-13T10:41:35;17.50;99.90
52187;DHT22;38161;53.020;6.598;2023-07-13T10:44:02;17.40;99.90
52187;DHT22;38161;53.020;6.598;2023-07-13T10:46:29;17.40;99.90
52187;DHT22;38161;53.020;6.598;2023-07-13T10:49:02;17.40;99.90
52187;DHT22;38161;53.020;6.598;2023-07-13T10:51:30;17.50;99.90
52187;DHT22;38161;53.020;6.598;2023-07-13T10:54:15;17.70;99.90
52187;DHT22;38161;53.020;6.598;2023-07-13T10:56:42;18.00;99.90
52187;DHT22;38161;53.020;6.598;2023-07-13T10:59:15;18.20;99.90
52187;DHT22;38161;53.020;6.598;2023-07-13T11:02:00;18.50;99.90
52187;DHT22;38161;53.020;6.598;2023-07-13T11:04:46;18.60;99.90
52187;DHT22;38161;53.020;6.598;2023-07-13T11:07:26;18.80;99.90
52187;DHT22;38161;53.020;6.598;2023-07-13T11:10:03;19.00;99.90
52187;DHT22;38161;53.020;6.598;2023-07-13T11:15:14;19.40;99.90
52187;DHT22;38161;53.020;6.598;2023-07-13T11:17:50;19.50;99.90
52187;DHT22;38161;53.020;6.598;2023-07-13T11:22:45;19.80;99.90
52187;DHT22;38161;53.020;6.598;2023-07-13T11:25:30;20.00;99.90
52187;DHT22;38161;53.020;6.598;2023-07-13T11:30:49;20.30;99.90
52187;DHT22;38161;53.020;6.598;2023-07-13T11:33:28;20.30;99.90
52187;DHT22;38161;53.020;6.598;2023-07-13T11:36:18;20.30;99.90
52187;DHT22;38161;53.020;6.598;2023-07-13T11:38:55;20.50;99.90
52187;DHT22;38161;53.020;6.598;2023-07-13T11:41:27;20.60;99.90
52187;DHT22;38161;53.020;6.598;2023-07-13T11:44:13;20.70;99.90
52187;DHT22;38161;53.020;6.598;2023-07-13T11:46:45;20.70;99.90
52187;DHT22;38161;53.020;6.598;2023-07-13T11:49:15;20.90;99.90
52187;DHT22;38161;53.020;6.598;2023-07-13T11:51:43;21.00;99.90
52187;DHT22;38161;53.020;6.598;2023-07-13T11:54:30;21.00;99.90
52187;DHT22;38161;53.020;6.598;2023-07-13T11:57:02;21.10;99.90
52187;DHT22;38161;53.020;6.598;2023-07-13T11:59:32;21.10;99.90
52187;DHT22;38161;53.020;6.598;2023-07-13T12:01:59;21.20;99.90
52187;DHT22;38161;53.020;6.598;2023-07-13T12:04:31;21.20;99.90
52187;DHT22;38161;53.020;6.598;2023-07-13T12:07:07;21.20;99.90
52187;DHT22;38161;53.020;6.598;2023-07-13T12:09:34;21.30;99.90
52187;DHT22;38161;53.020;6.598;2023-07-13T12:12:10;21.30;99.90
52187;DHT22;38161;53.020;6.598;2023-07-13T12:14:36;21.40;99.90
52187;DHT22;38161;53.020;6.598;2023-07-13T12:17:10;21.40;99.90
52187;DHT22;38161;53.020;6.598;2023-07-13T12:19:37;21.40;99.90
52187;DHT22;38161;53.020;6.598;2023-07-13T12:22:03;21.30;99.90
52187;DHT22;38161;53.020;6.598;2023-07-13T12:24:30;21.20;99.90
52187;DHT22;38161;53.020;6.598;2023-07-13T12:27:04;21.00;99.90
52187;DHT22;38161;53.020;6.598;2023-07-13T12:29:31;21.00;99.90
52187;DHT22;38161;53.020;6.598;2023-07-13T12:31:58;21.20;99.90
52187;DHT22;38161;53.020;6.598;2023-07-13T12:34:26;21.30;99.90
52187;DHT22;38161;53.020;6.598;2023-07-13T12:36:55;21.40;99.90
52187;DHT22;38161;53.020;6.598;2023-07-13T12:39:45;21.50;99.90
52187;DHT22;38161;53.020;6.598;2023-07-13T12:42:26;21.70;99.90
52187;DHT22;38161;53.020;6.598;2023-07-13T12:47:21;21.90;99.90
52187;DHT22;38161;53.020;6.598;2023-07-13T12:49:59;22.00;99.90
52187;DHT22;38161;53.020;6.598;2023-07-13T12:52:31;22.10;99.90
52187;DHT22;38161;53.020;6.598;2023-07-13T12:55:21;22.20;99.90
52187;DHT22;38161;53.020;6.598;2023-07-13T12:57:53;22.30;99.90
52187;DHT22;38161;53.020;6.598;2023-07-13T13:00:31;22.10;99.90
52187;DHT22;38161;53.020;6.598;2023-07-13T13:05:47;22.10;99.90
52187;DHT22;38161;53.020;6.598;2023-07-13T13:08:13;22.20;99.90
52187;DHT22;38161;53.020;6.598;2023-07-13T13:10:39;22.20;99.90
52187;DHT22;38161;53.020;6.598;2023-07-13T13:13:05;22.30;99.90
52187;DHT22;38161;53.020;6.598;2023-07-13T13:15:30;22.40;99.90
52187;DHT22;38161;53.020;6.598;2023-07-13T13:17:57;22.50;99.90
52187;DHT22;38161;53.020;6.598;2023-07-13T13:20:24;22.50;99.90
52187;DHT22;38161;53.020;6.598;2023-07-13T13:22:53;22.50;99.90
52187;DHT22;38161;53.020;6.598;2023-07-13T13:25:19;22.50;99.90
52187;DHT22;38161;53.020;6.598;2023-07-13T13:27:46;22.40;99.90
52187;DHT22;38161;53.020;6.598;2023-07-13T13:30:16;22.30;99.90
52187;DHT22;38161;53.020;6.598;2023-07-13T13:32:45;22.20;99.90
52187;DHT22;38161;53.020;6.598;2023-07-13T13:35:19;22.10;99.90
52187;DHT22;38161;53.020;6.598;2023-07-13T13:37:46;22.20;99.90
52187;DHT22;38161;53.020;6.598;2023-07-13T13:40:17;22.10;99.90
52187;DHT22;38161;53.020;6.598;2023-07-13T13:42:43;22.10;99.90
52187;DHT22;38161;53.020;6.598;2023-07-13T13:45:13;22.10;99.90
52187;DHT22;38161;53.020;6.598;2023-07-13T13:47:39;22.10;99.90
52187;DHT22;38161;53.020;6.598;2023-07-13T13:50:21;22.10;99.90
52187;DHT22;38161;53.020;6.598;2023-07-13T13:52:49;22.00;99.90
52187;DHT22;38161;53.020;6.598;2023-07-13T13:55:18;21.90;99.90
52187;DHT22;38161;53.020;6.598;2023-07-13T13:57:48;21.90;99.90
52187;DHT22;38161;53.020;6.598;2023-07-13T14:00:16;21.90;99.90
52187;DHT22;38161;53.020;6.598;2023-07-13T14:02:46;21.80;99.90
52187;DHT22;38161;53.020;6.598;2023-07-13T14:05:15;21.80;99.90
52187;DHT22;38161;53.020;6.598;2023-07-13T14:07:41;21.90;99.90
52187;DHT22;38161;53.020;6.598;2023-07-13T14:10:17;21.90;99.90
52187;DHT22;38161;53.020;6.598;2023-07-13T14:12:44;21.90;99.90
52187;DHT22;38161;53.020;6.598;2023-07-13T14:15:21;21.90;99.90
52187;DHT22;38161;53.020;6.598;2023-07-13T14:17:47;21.80;99.90
52187;DHT22;38161;53.020;6.598;2023-07-13T14:20:18;21.80;99.90
52187;DHT22;38161;53.020;6.598;2023-07-13T14:22:44;21.80;99.90
52187;DHT22;38161;53.020;6.598;2023-07-13T14:25:12;21.90;99.90
52187;DHT22;38161;53.020;6.598;2023-07-13T14:27:38;22.00;99.90
52187;DHT22;38161;53.020;6.598;2023-07-13T14:30:16;22.10;99.90
52187;DHT22;38161;53.020;6.598;2023-07-13T14:32:42;22.10;99.90
52187;DHT22;38161;53.020;6.598;2023-07-13T14:35:14;22.10;99.90
52187;DHT22;38161;53.020;6.598;2023-07-13T14:37:40;22.00;99.90
52187;DHT22;38161;53.020;6.598;2023-07-13T14:42:38;22.10;99.90
52187;DHT22;38161;53.020;6.598;2023-07-13T14:45:05;22.20;99.90
52187;DHT22;38161;53.020;6.598;2023-07-13T14:47:31;22.20;99.90
52187;DHT22;38161;53.020;6.598;2023-07-13T14:49:57;22.30;99.90
52187;DHT22;38161;53.020;6.598;2023-07-13T14:52:24;22.40;99.90
52187;DHT22;38161;53.020;6.598;2023-07-13T14:54:51;22.40;99.90
52187;DHT22;38161;53.020;6.598;2023-07-13T14:57:19;22.40;99.90
52187;DHT22;38161;53.020;6.598;2023-07-13T14:59:46;22.40;99.90
52187;DHT22;38161;53.020;6.598;2023-07-13T15:04:50;22.40;99.90
52187;DHT22;38161;53.020;6.598;2023-07-13T15:07:16;22.40;99.90
52187;DHT22;38161;53.020;6.598;2023-07-13T15:09:43;22.30;99.90
52187;DHT22;38161;53.020;6.598;2023-07-13T15:12:09;22.20;99.90
52187;DHT22;38161;53.020;6.598;2023-07-13T15:14:35;22.20;99.90
52187;DHT22;38161;53.020;6.598;2023-07-13T15:17:01;22.20;99.90
52187;DHT22;38161;53.020;6.598;2023-07-13T15:19:27;22.20;99.90
52187;DHT22;38161;53.020;6.598;2023-07-13T15:21:56;22.20;99.90
52187;DHT22;38161;53.020;6.598;2023-07-13T15:24:25;22.20;99.90
52187;DHT22;38161;53.020;6.598;2023-07-13T15:26:52;22.20;99.90
52187;DHT22;38161;53.020;6.598;2023-07-13T15:29:18;22.20;99.90
52187;DHT22;38161;53.020;6.598;2023-07-13T15:31:44;22.10;99.90
52187;DHT22;38161;53.020;6.598;2023-07-13T15:34:14;22.00;99.90
52187;DHT22;38161;53.020;6.598;2023-07-13T15:36:40;22.00;99.90
52187;DHT22;38161;53.020;6.598;2023-07-13T15:39:06;22.10;99.90
52187;DHT22;38161;53.020;6.598;2023-07-13T15:41:32;22.10;99.90
52187;DHT22;38161;53.020;6.598;2023-07-13T15:43:59;22.10;99.90
52187;DHT22;38161;53.020;6.598;2023-07-13T15:46:27;22.10;99.90
52187;DHT22;38161;53.020;6.598;2023-07-13T15:48:54;22.10;99.90
52187;DHT22;38161;53.020;6.598;2023-07-13T15:51:23;22.10;99.90
52187;DHT22;38161;53.020;6.598;2023-07-13T15:53:52;22.00;99.90
52187;DHT22;38161;53.020;6.598;2023-07-13T15:56:22;21.90;99.90
52187;DHT22;38161;53.020;6.598;2023-07-13T15:58:50;21.90;99.90
52187;DHT22;38161;53.020;6.598;2023-07-13T16:01:17;21.90;99.90
52187;DHT22;38161;53.020;6.598;2023-07-13T16:03:43;21.90;99.90
52187;DHT22;38161;53.020;6.598;2023-07-13T16:06:16;22.00;99.90
52187;DHT22;38161;53.020;6.598;2023-07-13T16:08:44;21.90;99.90
52187;DHT22;38161;53.020;6.598;2023-07-13T16:11:23;21.90;99.90
52187;DHT22;38161;53.020;6.598;2023-07-13T16:13:50;21.80;99.90
52187;DHT22;38161;53.020;6.598;2023-07-13T16:16:22;21.80;99.90
52187;DHT22;38161;53.020;6.598;2023-07-13T16:19:03;21.80;99.90